Terminal Aerodrome Forecast
Issued by NWS Charleston, SC

Home | Current Version | Previous Version | Text Only | Print | Product List | Glossary On
Versions: 1 2 3 4 5 6 7 8 9 10 11 12 13 14 15 16 17 18 19 20 21 22 23 24 25 26
000
FTUS42 KCHS 190853 AAA
TAFCHS
TAF AMD
KCHS 190853Z 1909/2006 32004KT 5SM BR SCT002
      TEMPO 1909/1912 36003KT 3SM BR BKN002
     FM191200 03005KT P6SM FEW050
     FM192100 08006KT P6SM SCT050 SCT200=

USA.gov is the U.S. government's official web portal to all federal, state and local government web resources and services.